トビリシ の空港の天気 - METARとTAF

トビリシ国際空港 ( UGTB / TBS ) - ジョージア トビリシ
飛行場実況気象(Metar)
観測時間12/14 10:00 GET (12/14 06:00 UTC)
風向・風速西 2m/s
視程10km以上
天気現象
なし
気温3℃
湿度81%
気圧1028hPa
METARUGTB 140600Z 27003KT 240V300 CAVOK 03/00 Q1028 NOSIG
過去の天気等 Google飛行場航空写真 Wunderground天気予報

過去48時間のMETAR

飛行場予報(TAF)
発表時間: 12/14 09:00 GET (12/14 05:00 UTC)
予報対象時間: 14日10時 GET ~ 15日10時 GET
風向・風速北西 6m/s
視程10km以上
全天の4割程度の雲 雲底高度 1830m
14日14時 GET ~ 14日22時 GET に一時的に
風向・風速不定 1m/s
全天の8割程度の雲 雲底高度 910m
14日23時 GET ~ 15日6時 GET に一時的に
全天の8割程度の雲 雲底高度 610m
TAF UGTB 140500Z 1406/1506 31011KT 9999 SCT060 TX07/1411Z TN00/1503Z
TEMPO 1410/1418 VRB02KT BKN030
TEMPO 1419/1502 BKN020